Terminal Aerodrome Forecast
Issued by NWS Sioux Falls, SD

Home | Current Version | Previous Version | Graphics & Text | Print | Product List | Glossary Off
Versions: 1 2 3 4 5 6 7 8 9 10 11 12 13 14 15 16 17

000
FTUS43 KFSD 211138
TAFSUX
TAF
KSUX 211138Z 2112/2212 11005KT 6SM BR SKC
      TEMPO 2112/2113 3SM BR
     FM211400 18007KT P6SM SKC WS012/23030KT
     FM211700 19012G20KT P6SM FEW250
     FM211900 22013G23KT P6SM FEW250
     FM212300 23010KT P6SM SKC
     FM220100 17006KT P6SM FEW250=

USA.gov is the U.S. government's official web portal to all federal, state and local government web resources and services.